Terminal Aerodrome Forecast
Issued by NWS Tampa Bay Area, FL

Home | Current Version | Previous Version | Text Only | Print | Product List | Glossary On
Versions: 1 2 3 4 5 6 7 8 9 10 11 12 13
000
FTUS42 KTBW 170520
TAFFMY
TAF
KFMY 170520Z 1706/1806 VRB03KT P6SM FEW040 BKN250
     FM171100 05004KT P6SM FEW015 SCT150 BKN250
     FM171400 06009KT P6SM SCT025 BKN150
     FM171900 06010KT P6SM VCSH SCT025 BKN040
     FM180200 05006KT P6SM SCT020 OVC040=

USA.gov is the U.S. government's official web portal to all federal, state and local government web resources and services.